TimeMST,TemperatureF,Dew PointF,Humidity,Sea Level PressureIn,VisibilityMPH,Wind Direction,Wind SpeedMPH,Gust SpeedMPH,PrecipitationIn,Events,Conditions,WindDirDegrees,DateUTC
12:15 AM,30.2,10.4,44,30.13,10.0,ESE,3.5,-,N/A,,Clear,120,2012-03-06 07:15:00
12:35 AM,32.0,10.4,41,30.13,10.0,ENE,5.8,-,N/A,,Clear,70,2012-03-06 07:35:00
12:55 AM,30.2,8.6,40,30.12,10.0,East,5.8,-,N/A,,Clear,90,2012-03-06 07:55:00
1:15 AM,30.2,8.6,40,30.11,10.0,East,5.8,-,N/A,,Clear,90,2012-03-06 08:15:00
1:35 AM,30.2,10.4,44,30.11,10.0,NE,4.6,-,N/A,,Clear,50,2012-03-06 08:35:00
1:55 AM,26.6,8.6,47,30.11,10.0,Calm,Calm,-,N/A,,Clear,0,2012-03-06 08:55:00
2:15 AM,26.6,10.4,51,30.10,10.0,North,3.5,-,N/A,,Clear,360,2012-03-06 09:15:00
2:35 AM,26.6,10.4,51,30.09,10.0,North,4.6,-,N/A,,Clear,360,2012-03-06 09:35:00
2:55 AM,28.4,12.2,51,30.08,10.0,NNE,5.8,-,N/A,,Clear,20,2012-03-06 09:55:00
3:15 AM,28.4,12.2,51,30.06,10.0,NNE,3.5,-,N/A,,Clear,20,2012-03-06 10:15:00
3:35 AM,26.6,10.4,51,30.06,10.0,Calm,Calm,-,N/A,,Clear,0,2012-03-06 10:35:00
3:55 AM,26.6,8.6,47,30.05,10.0,Calm,Calm,-,N/A,,Clear,0,2012-03-06 10:55:00
4:15 AM,24.8,8.6,50,30.05,10.0,Calm,Calm,-,N/A,,Clear,0,2012-03-06 11:15:00
4:35 AM,21.2,8.6,58,30.05,10.0,Calm,Calm,-,N/A,,Clear,0,2012-03-06 11:35:00
4:55 AM,26.6,10.4,51,30.05,10.0,North,4.6,-,N/A,,Clear,350,2012-03-06 11:55:00
5:35 AM,21.2,6.8,54,30.04,10.0,Calm,Calm,-,N/A,,Clear,0,2012-03-06 12:35:00
5:55 AM,26.6,10.4,51,30.04,10.0,South,3.5,-,N/A,,Clear,180,2012-03-06 12:55:00
6:15 AM,24.8,8.6,50,30.04,10.0,Calm,Calm,-,N/A,,Clear,0,2012-03-06 13:15:00
6:35 AM,21.2,10.4,63,30.03,10.0,East,3.5,-,N/A,,Clear,90,2012-03-06 13:35:00
6:55 AM,21.2,8.6,58,30.02,10.0,ENE,4.6,-,N/A,,Clear,70,2012-03-06 13:55:00
7:15 AM,26.6,12.2,55,30.02,10.0,Calm,Calm,-,N/A,,Clear,0,2012-03-06 14:15:00
7:35 AM,28.4,12.2,51,30.03,10.0,NNW,3.5,-,N/A,,Clear,330,2012-03-06 14:35:00
7:55 AM,33.8,15.8,48,30.02,10.0,Calm,Calm,-,N/A,,Clear,0,2012-03-06 14:55:00
8:15 AM,37.4,15.8,41,30.02,10.0,Calm,Calm,-,N/A,,Clear,0,2012-03-06 15:15:00
8:35 AM,41.0,17.6,39,30.02,10.0,Calm,Calm,-,N/A,,Clear,0,2012-03-06 15:35:00
8:55 AM,44.6,17.6,34,30.02,10.0,Calm,Calm,-,N/A,,Clear,0,2012-03-06 15:55:00
9:15 AM,46.4,15.8,29,30.01,10.0,WSW,3.5,-,N/A,,Clear,250,2012-03-06 16:15:00
9:35 AM,48.2,15.8,27,30.00,10.0,WSW,5.8,-,N/A,,Clear,240,2012-03-06 16:35:00
9:55 AM,50.0,15.8,26,29.99,10.0,WSW,8.1,-,N/A,,Clear,240,2012-03-06 16:55:00
10:15 AM,51.8,15.8,24,29.99,10.0,SW,11.5,18.4,N/A,,Clear,230,2012-03-06 17:15:00
10:35 AM,53.6,12.2,19,29.98,10.0,SW,11.5,16.1,N/A,,Clear,220,2012-03-06 17:35:00
10:55 AM,53.6,10.4,18,29.97,10.0,SSW,10.4,17.3,N/A,,Clear,210,2012-03-06 17:55:00
11:15 AM,55.4,10.4,17,29.95,10.0,SW,18.4,23.0,N/A,,Clear,230,2012-03-06 18:15:00
11:55 AM,57.2,8.6,14,29.92,10.0,West,13.8,-,N/A,,Clear,260,2012-03-06 18:55:00
12:35 PM,57.2,8.6,14,29.89,10.0,SW,16.1,21.9,N/A,,Clear,230,2012-03-06 19:35:00
12:55 PM,57.2,8.6,14,29.87,10.0,WSW,15.0,23.0,N/A,,Clear,240,2012-03-06 19:55:00
1:15 PM,59.0,8.6,14,29.85,10.0,WSW,16.1,23.0,N/A,,Clear,240,2012-03-06 20:15:00
1:35 PM,60.8,8.6,13,29.84,10.0,WSW,18.4,29.9,N/A,,Clear,240,2012-03-06 20:35:00
1:55 PM,60.8,8.6,13,29.83,10.0,WSW,23.0,29.9,N/A,,Clear,250,2012-03-06 20:55:00
2:15 PM,59.0,8.6,14,29.81,10.0,WSW,21.9,28.8,N/A,,Clear,240,2012-03-06 21:15:00
2:35 PM,60.8,8.6,13,29.82,10.0,West,20.7,32.2,N/A,,Clear,260,2012-03-06 21:35:00
3:15 PM,60.8,6.8,12,29.82,10.0,WSW,16.1,29.9,N/A,,Clear,240,2012-03-06 22:15:00
3:35 PM,57.2,6.8,13,29.81,10.0,WSW,17.3,27.6,N/A,,Clear,250,2012-03-06 22:35:00
3:55 PM,57.2,3.2,11,29.80,10.0,SSW,23.0,28.8,N/A,,Clear,210,2012-03-06 22:55:00
4:15 PM,55.4,5.0,13,29.80,10.0,SW,17.3,21.9,N/A,,Clear,220,2012-03-06 23:15:00
4:35 PM,57.2,6.8,13,29.79,10.0,SSW,16.1,23.0,N/A,,Clear,200,2012-03-06 23:35:00
4:55 PM,55.4,6.8,14,29.78,10.0,SW,16.1,-,N/A,,Clear,220,2012-03-06 23:55:00
5:55 PM,48.2,6.8,19,29.77,10.0,South,9.2,-,N/A,,Clear,190,2012-03-07 00:55:00
6:35 PM,48.2,6.8,19,29.76,10.0,South,9.2,16.1,N/A,,Clear,190,2012-03-07 01:35:00
6:55 PM,50.0,6.8,17,29.76,10.0,SSW,16.1,24.2,N/A,,Clear,210,2012-03-07 01:55:00
7:15 PM,48.2,5.0,17,29.76,10.0,SSW,11.5,-,N/A,,Clear,210,2012-03-07 02:15:00
7:35 PM,48.2,5.0,17,29.77,10.0,SW,8.1,-,N/A,,Clear,220,2012-03-07 02:35:00
8:15 PM,41.0,3.2,21,29.77,10.0,East,4.6,-,N/A,,Clear,100,2012-03-07 03:15:00
8:35 PM,42.8,6.8,23,29.78,10.0,South,4.6,-,N/A,,Clear,180,2012-03-07 03:35:00
8:55 PM,42.8,6.8,23,29.78,10.0,SSW,9.2,-,N/A,,Clear,200,2012-03-07 03:55:00
9:15 PM,44.6,8.6,23,29.78,10.0,SW,9.2,-,N/A,,Clear,220,2012-03-07 04:15:00
9:55 PM,46.4,6.8,20,29.79,10.0,SSW,9.2,-,N/A,,Clear,200,2012-03-07 04:55:00
10:15 PM,44.6,6.8,21,29.79,10.0,SSW,8.1,-,N/A,,Clear,200,2012-03-07 05:15:00
10:35 PM,42.8,6.8,23,29.79,10.0,South,9.2,-,N/A,,Clear,180,2012-03-07 05:35:00
10:55 PM,46.4,8.6,22,29.78,10.0,SSW,11.5,-,N/A,,Clear,200,2012-03-07 05:55:00
11:15 PM,46.4,6.8,20,29.78,10.0,SSW,11.5,-,N/A,,Partly Cloudy,200,2012-03-07 06:15:00
11:55 PM,42.8,5.0,21,29.78,10.0,South,8.1,-,N/A,,Scattered Clouds,180,2012-03-07 06:55:00